Nagakanemaru — JJ3281 — position and weather

sailwx.info

Track history (hours):
 
Tides and Currents Weather Stations Pressure Air Temp Water Temp Dewpoint Dewpoint Depression Visibility Wind Speed Wind Dir Waves Ship Positions

Nagakanemaru

Last reported at 2017-Oct-22 05:59 UTC. Time now 2017-Oct-22 06:16 UTC.
Position N 34°42' E 135°13'.

Length 28 m.

Type: Towing. MMSI: 431301688.

Date/timePositionNaut miles runAvg speedWind from/ knotsBaromVisibWave heightAir tempDewpointWater temp
2017-Oct-22 05:59N 34°42' E 135°13'0 0.0
2017-Oct-22 05:29N 34°42' E 135°13'0 0.0
2017-Oct-22 04:47N 34°42' E 135°13'0 0.0
2017-Oct-22 04:29N 34°42' E 135°13'0 0.0
2017-Oct-22 03:59N 34°42' E 135°13'0 0.0
2017-Oct-22 03:29N 34°42' E 135°13'0 0.0
2017-Oct-22 02:59N 34°42' E 135°13'0 0.0
2017-Oct-22 02:23N 34°42' E 135°13'0 0.0
2017-Oct-22 01:59N 34°42' E 135°13'0 0.0
2017-Oct-22 01:29N 34°42' E 135°13'0 0.0
2017-Oct-22 00:59N 34°42' E 135°13'0 0.0
2017-Oct-22 00:29N 34°42' E 135°13'0 0.0
2017-Oct-21 23:59N 34°42' E 135°13'0 0.0
2017-Oct-21 23:29N 34°42' E 135°13'0 0.0
2017-Oct-21 22:59N 34°42' E 135°13'0 0.0
2017-Oct-21 22:29N 34°42' E 135°13'0 0.0
2017-Oct-21 21:59N 34°42' E 135°13'0 0.0
2017-Oct-21 21:17N 34°42' E 135°13'0 0.0
2017-Oct-21 20:59N 34°42' E 135°13'0 0.0
2017-Oct-21 20:23N 34°42' E 135°13'0 0.0
2017-Oct-21 19:59N 34°42' E 135°13'0 0.0
2017-Oct-21 19:23N 34°42' E 135°13'0 0.0
2017-Oct-21 18:59N 34°42' E 135°13'0 0.0
2017-Oct-21 18:29N 34°42' E 135°13'0 0.0
2017-Oct-21 17:59N 34°42' E 135°13'0 0.0
2017-Oct-21 17:29N 34°42' E 135°13'0 0.0
2017-Oct-21 16:59N 34°42' E 135°13'0 0.0
2017-Oct-21 16:29N 34°42' E 135°13'0 0.0
2017-Oct-21 15:59N 34°42' E 135°13'0 0.0
2017-Oct-21 15:05N 34°42' E 135°13'0 0.0
2017-Oct-21 14:59N 34°42' E 135°13'0 0.0
2017-Oct-21 14:29N 34°42' E 135°13'0 0.0
2017-Oct-21 13:29N 34°42' E 135°13'0 0.0
2017-Oct-21 12:53N 34°42' E 135°13'0 0.0
2017-Oct-21 12:29N 34°42' E 135°13'0 0.0
2017-Oct-21 11:53N 34°42' E 135°13'0 0.0
2017-Oct-21 11:23N 34°42' E 135°13'0 0.0
2017-Oct-21 10:59N 34°42' E 135°13'0 0.0
2017-Oct-21 10:29N 34°42' E 135°13'0 0.0
2017-Oct-21 09:53N 34°42' E 135°13'0 0.0
2017-Oct-21 09:29N 34°42' E 135°13'0 0.0
2017-Oct-21 08:59N 34°42' E 135°13'0 0.0
2017-Oct-21 08:29N 34°42' E 135°13'0 0.0
2017-Oct-21 07:59N 34°42' E 135°13'0 0.0
2017-Oct-21 07:17N 34°42' E 135°13'0 0.0
2017-Oct-21 06:59N 34°42' E 135°13'0 0.0
2017-Oct-21 06:29N 34°42' E 135°13'0 0.0
2017-Oct-21 05:41N 34°42' E 135°13'0 0.0
2017-Oct-21 05:29N 34°42' E 135°13'0 0.0
2017-Oct-21 04:59N 34°42' E 135°13'0 0.0
2017-Oct-21 04:29N 34°42' E 135°13'0 0.0
2017-Oct-21 03:59N 34°42' E 135°13'0 0.0
2017-Oct-21 03:29N 34°42' E 135°13'0 0.0
2017-Oct-21 02:59N 34°42' E 135°13'0 0.0
2017-Oct-21 02:29N 34°42' E 135°13'0 0.0
2017-Oct-21 01:59N 34°42' E 135°13'0 0.0
2017-Oct-21 01:29N 34°42' E 135°13'0 0.0
2017-Oct-21 00:59N 34°42' E 135°13'0 0.0
2017-Oct-21 00:29N 34°42' E 135°13'0 0.0
2017-Oct-20 23:59N 34°42' E 135°13'1 2.9
2017-Oct-20 23:30N 34°41' E 135°14'510.4
2017-Oct-20 22:59N 34°40' E 135°21'4 7.3
2017-Oct-20 22:27N 34°40' E 135°25'3 6.9
2017-Oct-20 22:00N 34°40' E 135°22'5 9.7
2017-Oct-20 21:30N 34°41' E 135°16'2 4.6
2017-Oct-20 20:59N 34°42' E 135°13'0 0.0
2017-Oct-20 20:17N 34°42' E 135°13'0 0.0
2017-Oct-20 19:59N 34°42' E 135°13'0 0.0
2017-Oct-20 19:29N 34°42' E 135°13'0 0.0
2017-Oct-20 18:59N 34°42' E 135°13'0 0.0
2017-Oct-20 18:29N 34°42' E 135°13'0 0.0
2017-Oct-20 17:59N 34°42' E 135°13'0 0.0
2017-Oct-20 17:29N 34°42' E 135°13'0 0.0
2017-Oct-20 16:59N 34°42' E 135°13'0 0.0
2017-Oct-20 16:29N 34°42' E 135°13'0 0.0
2017-Oct-20 15:59N 34°42' E 135°13'0 0.0
2017-Oct-20 15:29N 34°42' E 135°13'0 0.0
2017-Oct-20 14:59N 34°42' E 135°13'0 0.0
2017-Oct-20 13:59N 34°42' E 135°13'0 0.0
2017-Oct-20 13:23N 34°42' E 135°13'0 0.0
2017-Oct-20 12:59N 34°42' E 135°13'0 0.0
2017-Oct-20 12:29N 34°42' E 135°13'0 0.0
2017-Oct-20 11:59N 34°42' E 135°13'0 0.0
2017-Oct-20 11:29N 34°42' E 135°13'0 0.0
2017-Oct-20 10:59N 34°42' E 135°13'0 0.0
2017-Oct-20 10:29N 34°42' E 135°13'0 0.0
2017-Oct-20 09:53N 34°42' E 135°13'0 0.0
2017-Oct-20 09:29N 34°42' E 135°13'0 0.0
2017-Oct-20 08:59N 34°42' E 135°13'0 0.0
2017-Oct-20 08:29N 34°42' E 135°13'0 0.0
2017-Oct-20 07:59N 34°42' E 135°13'0 0.0
2017-Oct-20 07:29N 34°42' E 135°13'0 0.0
2017-Oct-20 06:59N 34°42' E 135°13'0 0.0
2017-Oct-20 06:29N 34°42' E 135°13'0 0.0
2017-Oct-20 05:59N 34°42' E 135°13'0 0.0
2017-Oct-20 05:23N 34°42' E 135°13'0 0.0
2017-Oct-20 04:53N 34°42' E 135°13'0 0.0
2017-Oct-20 04:29N 34°42' E 135°13'0 0.0
2017-Oct-20 03:59N 34°42' E 135°13'1 1.1
2017-Oct-20 03:18N 34°41' E 135°13'1 2.8
2017-Oct-20 02:59N 34°40' E 135°12'5 9.6
2017-Oct-20 02:30N 34°37' E 135°08'  
2017-Oct-15 02:32N 34°37' E 135°02'2 5.1
2017-Oct-15 02:04N 34°36' E 135°04'1 6.7
2017-Oct-15 01:56N 34°36' E 135°05'4 8.2
2017-Oct-15 01:30N 34°38' E 135°09'4 7.8
2017-Oct-15 01:00N 34°41' E 135°12'2 3.2
2017-Oct-15 00:30N 34°41' E 135°14'1 0.7
2017-Oct-14 23:14N 34°42' E 135°13'0 0.0
2017-Oct-14 22:56N 34°42' E 135°13'0 0.0
2017-Oct-14 22:26N 34°42' E 135°13'0 0.0
2017-Oct-14 21:50N 34°42' E 135°13'0 0.0
2017-Oct-14 21:26N 34°42' E 135°13'0 0.0
2017-Oct-14 20:56N 34°42' E 135°13'0 0.0
2017-Oct-14 20:26N 34°42' E 135°13'0 0.0
2017-Oct-14 19:56N 34°42' E 135°13'0 0.0
2017-Oct-14 19:26N 34°42' E 135°13'0 0.0
2017-Oct-14 18:56N 34°42' E 135°13'0 0.0
2017-Oct-14 18:26N 34°42' E 135°13'0 0.0
2017-Oct-14 17:50N 34°42' E 135°13'0 0.0
2017-Oct-14 17:20N 34°42' E 135°13'0 0.0
2017-Oct-14 16:56N 34°42' E 135°13'0 0.0
2017-Oct-14 16:20N 34°42' E 135°13'0 0.0
2017-Oct-14 15:56N 34°42' E 135°13'0 0.0
2017-Oct-14 15:26N 34°42' E 135°13'0 0.0
2017-Oct-14 14:56N 34°42' E 135°13'0 0.0
2017-Oct-14 14:26N 34°42' E 135°13'0 0.0
2017-Oct-14 13:56N 34°42' E 135°13'0 0.0
2017-Oct-14 13:26N 34°42' E 135°13'0 0.0
2017-Oct-14 12:56N 34°42' E 135°13'0 0.0
2017-Oct-14 12:26N 34°42' E 135°13'0 0.0
2017-Oct-14 11:56N 34°42' E 135°13'0 0.0
2017-Oct-14 11:26N 34°42' E 135°13'0 0.0
2017-Oct-14 10:56N 34°42' E 135°13'0 0.0
2017-Oct-14 10:26N 34°42' E 135°13'0 0.0
2017-Oct-14 09:56N 34°42' E 135°13'0 0.0
2017-Oct-14 09:26N 34°42' E 135°13'0 0.0
2017-Oct-14 08:56N 34°42' E 135°13'0 0.0
2017-Oct-14 08:26N 34°42' E 135°13'0 0.0
2017-Oct-14 07:56N 34°42' E 135°13'0 0.0
2017-Oct-14 07:26N 34°42' E 135°13'0 0.0
2017-Oct-14 06:56N 34°42' E 135°13'0 0.0
2017-Oct-14 06:26N 34°42' E 135°13'0 0.0
2017-Oct-14 05:56N 34°42' E 135°13'0 0.0
2017-Oct-14 05:26N 34°42' E 135°13'0 0.0
2017-Oct-14 04:56N 34°42' E 135°13'0 0.0
2017-Oct-14 04:20N 34°42' E 135°13'0 0.0
2017-Oct-14 03:50N 34°42' E 135°13'0 0.0
2017-Oct-14 03:26N 34°42' E 135°13'0 0.0
2017-Oct-14 02:56N 34°42' E 135°13'0 0.0
2017-Oct-14 02:26N 34°42' E 135°13'0 0.0
2017-Oct-14 01:56N 34°42' E 135°13'0 0.0
2017-Oct-14 01:26N 34°42' E 135°13'0 0.0
2017-Oct-14 00:56N 34°42' E 135°13'0 0.0
2017-Oct-14 00:26N 34°42' E 135°13'0 0.0
2017-Oct-13 23:56N 34°42' E 135°13'0 0.0
2017-Oct-13 23:26N 34°42' E 135°13'0 0.0
2017-Oct-13 22:56N 34°42' E 135°13'0 0.0
2017-Oct-13 22:26N 34°42' E 135°13'0 0.0
2017-Oct-13 21:50N 34°42' E 135°13'0 0.0
2017-Oct-13 21:26N 34°42' E 135°13'0 0.0
2017-Oct-13 20:50N 34°42' E 135°13'0 0.0
2017-Oct-13 20:26N 34°42' E 135°13'0 0.0
2017-Oct-13 19:56N 34°42' E 135°13'0 0.0
2017-Oct-13 19:26N 34°42' E 135°13'0 0.0
2017-Oct-13 18:56N 34°42' E 135°13'0 0.0
2017-Oct-13 18:26N 34°42' E 135°13'0 0.0
2017-Oct-13 17:50N 34°42' E 135°13'0 0.0
2017-Oct-13 17:26N 34°42' E 135°13'0 0.0
2017-Oct-13 16:56N 34°42' E 135°13'0 0.0
2017-Oct-13 16:26N 34°42' E 135°13'0 0.0
2017-Oct-13 15:56N 34°42' E 135°13'0 0.0
2017-Oct-13 15:26N 34°42' E 135°13'0 0.0
2017-Oct-13 14:56N 34°42' E 135°13'0 0.0
2017-Oct-13 14:26N 34°42' E 135°13'0 0.0
2017-Oct-13 13:50N 34°42' E 135°13'0 0.0
2017-Oct-13 13:26N 34°42' E 135°13'0 0.0
2017-Oct-13 12:56N 34°42' E 135°13'0 0.0
2017-Oct-13 12:26N 34°42' E 135°13'0 0.0
2017-Oct-13 11:56N 34°42' E 135°13'0 0.0
2017-Oct-13 11:20N 34°42' E 135°13'0 0.0
2017-Oct-13 10:50N 34°42' E 135°13'0 0.0
2017-Oct-13 10:26N 34°42' E 135°13'0 0.0
2017-Oct-13 09:50N 34°42' E 135°13'0 0.0
2017-Oct-13 09:26N 34°42' E 135°13'0 0.0
2017-Oct-13 08:44N 34°42' E 135°13'0 0.0
2017-Oct-13 08:14N 34°42' E 135°13'0 0.0
2017-Oct-13 07:50N 34°42' E 135°13'0 0.0
2017-Oct-13 07:20N 34°42' E 135°13'0 0.0
2017-Oct-13 06:56N 34°42' E 135°13'0 0.0
2017-Oct-13 06:26N 34°42' E 135°13'0 0.0
2017-Oct-13 05:44N 34°42' E 135°13'0 0.0
2017-Oct-13 05:26N 34°42' E 135°13'0 0.0
2017-Oct-13 04:56N 34°42' E 135°13'0 0.0
2017-Oct-13 04:26N 34°42' E 135°13'0 0.0
2017-Oct-13 03:50N 34°42' E 135°13'0 0.0
2017-Oct-13 03:26N 34°42' E 135°13'0 0.0
2017-Oct-13 02:56N 34°42' E 135°13'0 0.0
2017-Oct-13 02:26N 34°42' E 135°13'0 0.0
2017-Oct-13 01:50N 34°42' E 135°13'0 0.0
2017-Oct-13 01:26N 34°42' E 135°13'0 0.0
2017-Oct-13 00:56N 34°42' E 135°13'0 0.0
2017-Oct-13 00:26N 34°42' E 135°13'0 0.0
2017-Oct-12 23:56N 34°42' E 135°13'0 0.0
2017-Oct-12 23:26N 34°42' E 135°13'0 0.0
2017-Oct-12 22:56N 34°42' E 135°13'0 0.0
2017-Oct-12 22:08N 34°42' E 135°13'0 0.0
2017-Oct-12 21:56N 34°42' E 135°13'0 0.0
2017-Oct-12 21:14N 34°42' E 135°13'0 0.0
2017-Oct-12 20:56N 34°42' E 135°13'0 0.0
2017-Oct-12 20:14N 34°42' E 135°13'0 0.0
2017-Oct-12 19:56N 34°42' E 135°13'0 0.0
2017-Oct-12 19:26N 34°42' E 135°13'0 0.0
2017-Oct-12 18:56N 34°42' E 135°13'0 0.0
2017-Oct-12 18:26N 34°42' E 135°13'0 0.0
2017-Oct-12 17:56N 34°42' E 135°13'0 0.0
2017-Oct-12 17:26N 34°42' E 135°13'0 0.0
2017-Oct-12 16:56N 34°42' E 135°13'0 0.0
2017-Oct-12 16:20N 34°42' E 135°13'0 0.0
2017-Oct-12 15:56N 34°42' E 135°13'0 0.0
2017-Oct-12 15:26N 34°42' E 135°13'0 0.0
2017-Oct-12 14:56N 34°42' E 135°13'0 0.0
2017-Oct-12 14:26N 34°42' E 135°13'0 0.0
2017-Oct-12 13:56N 34°42' E 135°13'0 0.0
2017-Oct-12 13:26N 34°42' E 135°13'0 0.0
2017-Oct-12 12:56N 34°42' E 135°13'0 0.0
2017-Oct-12 12:26N 34°42' E 135°13'0 0.0
2017-Oct-12 11:50N 34°42' E 135°13'0 0.0
2017-Oct-12 11:26N 34°42' E 135°13'0 0.0
2017-Oct-12 10:56N 34°42' E 135°13'0 0.0
2017-Oct-12 10:26N 34°42' E 135°13'0 0.0
2017-Oct-12 09:56N 34°42' E 135°13'0 0.0
2017-Oct-12 09:14N 34°42' E 135°13'0 0.0
2017-Oct-12 08:50N 34°42' E 135°13'0 0.0
2017-Oct-12 08:26N 34°42' E 135°13'0 0.0
2017-Oct-12 07:56N 34°42' E 135°13'0 0.0
2017-Oct-12 07:20N 34°42' E 135°13'0 0.0
2017-Oct-12 06:56N 34°42' E 135°13'0 1.2
2017-Oct-12 06:30N 34°41' E 135°13'  
Track history (hours):
 
Tides and Currents Weather Stations Pressure Air Temp Water Temp Dewpoint Dewpoint Depression Visibility Wind Speed Wind Dir Waves Ship Positions

Nagakanemaru

Last reported at 2017-Oct-22 05:59 UTC. Time now 2017-Oct-22 06:16 UTC.
Position N 34°42' E 135°13'.

Length 28 m.

Type: Towing. MMSI: 431301688.

Date/timePositionNaut miles runAvg speedWind from/ knotsBaromVisibWave heightAir tempDewpointWater temp
2017-Oct-22 05:59N 34°42' E 135°13'0 0.0
2017-Oct-22 05:29N 34°42' E 135°13'0 0.0
2017-Oct-22 04:47N 34°42' E 135°13'0 0.0
2017-Oct-22 04:29N 34°42' E 135°13'0 0.0
2017-Oct-22 03:59N 34°42' E 135°13'0 0.0
2017-Oct-22 03:29N 34°42' E 135°13'0 0.0
2017-Oct-22 02:59N 34°42' E 135°13'0 0.0
2017-Oct-22 02:23N 34°42' E 135°13'0 0.0
2017-Oct-22 01:59N 34°42' E 135°13'0 0.0
2017-Oct-22 01:29N 34°42' E 135°13'0 0.0
2017-Oct-22 00:59N 34°42' E 135°13'0 0.0
2017-Oct-22 00:29N 34°42' E 135°13'0 0.0
2017-Oct-21 23:59N 34°42' E 135°13'0 0.0
2017-Oct-21 23:29N 34°42' E 135°13'0 0.0
2017-Oct-21 22:59N 34°42' E 135°13'0 0.0
2017-Oct-21 22:29N 34°42' E 135°13'0 0.0
2017-Oct-21 21:59N 34°42' E 135°13'0 0.0
2017-Oct-21 21:17N 34°42' E 135°13'0 0.0
2017-Oct-21 20:59N 34°42' E 135°13'0 0.0
2017-Oct-21 20:23N 34°42' E 135°13'0 0.0
2017-Oct-21 19:59N 34°42' E 135°13'0 0.0
2017-Oct-21 19:23N 34°42' E 135°13'0 0.0
2017-Oct-21 18:59N 34°42' E 135°13'0 0.0
2017-Oct-21 18:29N 34°42' E 135°13'0 0.0
2017-Oct-21 17:59N 34°42' E 135°13'0 0.0
2017-Oct-21 17:29N 34°42' E 135°13'0 0.0
2017-Oct-21 16:59N 34°42' E 135°13'0 0.0
2017-Oct-21 16:29N 34°42' E 135°13'0 0.0
2017-Oct-21 15:59N 34°42' E 135°13'0 0.0
2017-Oct-21 15:05N 34°42' E 135°13'0 0.0
2017-Oct-21 14:59N 34°42' E 135°13'0 0.0
2017-Oct-21 14:29N 34°42' E 135°13'0 0.0
2017-Oct-21 13:29N 34°42' E 135°13'0 0.0
2017-Oct-21 12:53N 34°42' E 135°13'0 0.0
2017-Oct-21 12:29N 34°42' E 135°13'0 0.0
2017-Oct-21 11:53N 34°42' E 135°13'0 0.0
2017-Oct-21 11:23N 34°42' E 135°13'0 0.0
2017-Oct-21 10:59N 34°42' E 135°13'0 0.0
2017-Oct-21 10:29N 34°42' E 135°13'0 0.0
2017-Oct-21 09:53N 34°42' E 135°13'0 0.0
2017-Oct-21 09:29N 34°42' E 135°13'0 0.0
2017-Oct-21 08:59N 34°42' E 135°13'0 0.0
2017-Oct-21 08:29N 34°42' E 135°13'0 0.0
2017-Oct-21 07:59N 34°42' E 135°13'0 0.0
2017-Oct-21 07:17N 34°42' E 135°13'0 0.0
2017-Oct-21 06:59N 34°42' E 135°13'0 0.0
2017-Oct-21 06:29N 34°42' E 135°13'0 0.0
2017-Oct-21 05:41N 34°42' E 135°13'0 0.0
2017-Oct-21 05:29N 34°42' E 135°13'0 0.0
2017-Oct-21 04:59N 34°42' E 135°13'0 0.0
2017-Oct-21 04:29N 34°42' E 135°13'0 0.0
2017-Oct-21 03:59N 34°42' E 135°13'0 0.0
2017-Oct-21 03:29N 34°42' E 135°13'0 0.0
2017-Oct-21 02:59N 34°42' E 135°13'0 0.0
2017-Oct-21 02:29N 34°42' E 135°13'0 0.0
2017-Oct-21 01:59N 34°42' E 135°13'0 0.0
2017-Oct-21 01:29N 34°42' E 135°13'0 0.0
2017-Oct-21 00:59N 34°42' E 135°13'0 0.0
2017-Oct-21 00:29N 34°42' E 135°13'0 0.0
2017-Oct-20 23:59N 34°42' E 135°13'1 2.9
2017-Oct-20 23:30N 34°41' E 135°14'510.4
2017-Oct-20 22:59N 34°40' E 135°21'4 7.3
2017-Oct-20 22:27N 34°40' E 135°25'3 6.9
2017-Oct-20 22:00N 34°40' E 135°22'5 9.7
2017-Oct-20 21:30N 34°41' E 135°16'2 4.6
2017-Oct-20 20:59N 34°42' E 135°13'0 0.0
2017-Oct-20 20:17N 34°42' E 135°13'0 0.0
2017-Oct-20 19:59N 34°42' E 135°13'0 0.0
2017-Oct-20 19:29N 34°42' E 135°13'0 0.0
2017-Oct-20 18:59N 34°42' E 135°13'0 0.0
2017-Oct-20 18:29N 34°42' E 135°13'0 0.0
2017-Oct-20 17:59N 34°42' E 135°13'0 0.0
2017-Oct-20 17:29N 34°42' E 135°13'0 0.0
2017-Oct-20 16:59N 34°42' E 135°13'0 0.0
2017-Oct-20 16:29N 34°42' E 135°13'0 0.0
2017-Oct-20 15:59N 34°42' E 135°13'0 0.0
2017-Oct-20 15:29N 34°42' E 135°13'0 0.0
2017-Oct-20 14:59N 34°42' E 135°13'0 0.0
2017-Oct-20 13:59N 34°42' E 135°13'0 0.0
2017-Oct-20 13:23N 34°42' E 135°13'0 0.0
2017-Oct-20 12:59N 34°42' E 135°13'0 0.0
2017-Oct-20 12:29N 34°42' E 135°13'0 0.0
2017-Oct-20 11:59N 34°42' E 135°13'0 0.0
2017-Oct-20 11:29N 34°42' E 135°13'0 0.0
2017-Oct-20 10:59N 34°42' E 135°13'0 0.0
2017-Oct-20 10:29N 34°42' E 135°13'0 0.0
2017-Oct-20 09:53N 34°42' E 135°13'0 0.0
2017-Oct-20 09:29N 34°42' E 135°13'0 0.0
2017-Oct-20 08:59N 34°42' E 135°13'0 0.0
2017-Oct-20 08:29N 34°42' E 135°13'0 0.0
2017-Oct-20 07:59N 34°42' E 135°13'0 0.0
2017-Oct-20 07:29N 34°42' E 135°13'0 0.0
2017-Oct-20 06:59N 34°42' E 135°13'0 0.0
2017-Oct-20 06:29N 34°42' E 135°13'0 0.0
2017-Oct-20 05:59N 34°42' E 135°13'0 0.0
2017-Oct-20 05:23N 34°42' E 135°13'0 0.0
2017-Oct-20 04:53N 34°42' E 135°13'0 0.0
2017-Oct-20 04:29N 34°42' E 135°13'0 0.0
2017-Oct-20 03:59N 34°42' E 135°13'1 1.1
2017-Oct-20 03:18N 34°41' E 135°13'1 2.8
2017-Oct-20 02:59N 34°40' E 135°12'5 9.6
2017-Oct-20 02:30N 34°37' E 135°08'  
2017-Oct-15 02:32N 34°37' E 135°02'2 5.1
2017-Oct-15 02:04N 34°36' E 135°04'1 6.7
2017-Oct-15 01:56N 34°36' E 135°05'4 8.2
2017-Oct-15 01:30N 34°38' E 135°09'4 7.8
2017-Oct-15 01:00N 34°41' E 135°12'2 3.2
2017-Oct-15 00:30N 34°41' E 135°14'1 0.7
2017-Oct-14 23:14N 34°42' E 135°13'0 0.0
2017-Oct-14 22:56N 34°42' E 135°13'0 0.0
2017-Oct-14 22:26N 34°42' E 135°13'0 0.0
2017-Oct-14 21:50N 34°42' E 135°13'0 0.0
2017-Oct-14 21:26N 34°42' E 135°13'0 0.0
2017-Oct-14 20:56N 34°42' E 135°13'0 0.0
2017-Oct-14 20:26N 34°42' E 135°13'0 0.0
2017-Oct-14 19:56N 34°42' E 135°13'0 0.0
2017-Oct-14 19:26N 34°42' E 135°13'0 0.0
2017-Oct-14 18:56N 34°42' E 135°13'0 0.0
2017-Oct-14 18:26N 34°42' E 135°13'0 0.0
2017-Oct-14 17:50N 34°42' E 135°13'0 0.0
2017-Oct-14 17:20N 34°42' E 135°13'0 0.0
2017-Oct-14 16:56N 34°42' E 135°13'0 0.0
2017-Oct-14 16:20N 34°42' E 135°13'0 0.0
2017-Oct-14 15:56N 34°42' E 135°13'0 0.0
2017-Oct-14 15:26N 34°42' E 135°13'0 0.0
2017-Oct-14 14:56N 34°42' E 135°13'0 0.0
2017-Oct-14 14:26N 34°42' E 135°13'0 0.0
2017-Oct-14 13:56N 34°42' E 135°13'0 0.0
2017-Oct-14 13:26N 34°42' E 135°13'0 0.0
2017-Oct-14 12:56N 34°42' E 135°13'0 0.0
2017-Oct-14 12:26N 34°42' E 135°13'0 0.0
2017-Oct-14 11:56N 34°42' E 135°13'0 0.0
2017-Oct-14 11:26N 34°42' E 135°13'0 0.0
2017-Oct-14 10:56N 34°42' E 135°13'0 0.0
2017-Oct-14 10:26N 34°42' E 135°13'0 0.0
2017-Oct-14 09:56N 34°42' E 135°13'0 0.0
2017-Oct-14 09:26N 34°42' E 135°13'0 0.0
2017-Oct-14 08:56N 34°42' E 135°13'0 0.0
2017-Oct-14 08:26N 34°42' E 135°13'0 0.0
2017-Oct-14 07:56N 34°42' E 135°13'0 0.0
2017-Oct-14 07:26N 34°42' E 135°13'0 0.0
2017-Oct-14 06:56N 34°42' E 135°13'0 0.0
2017-Oct-14 06:26N 34°42' E 135°13'0 0.0
2017-Oct-14 05:56N 34°42' E 135°13'0 0.0
2017-Oct-14 05:26N 34°42' E 135°13'0 0.0
2017-Oct-14 04:56N 34°42' E 135°13'0 0.0
2017-Oct-14 04:20N 34°42' E 135°13'0 0.0
2017-Oct-14 03:50N 34°42' E 135°13'0 0.0
2017-Oct-14 03:26N 34°42' E 135°13'0 0.0
2017-Oct-14 02:56N 34°42' E 135°13'0 0.0
2017-Oct-14 02:26N 34°42' E 135°13'0 0.0
2017-Oct-14 01:56N 34°42' E 135°13'0 0.0
2017-Oct-14 01:26N 34°42' E 135°13'0 0.0
2017-Oct-14 00:56N 34°42' E 135°13'0 0.0
2017-Oct-14 00:26N 34°42' E 135°13'0 0.0
2017-Oct-13 23:56N 34°42' E 135°13'0 0.0
2017-Oct-13 23:26N 34°42' E 135°13'0 0.0
2017-Oct-13 22:56N 34°42' E 135°13'0 0.0
2017-Oct-13 22:26N 34°42' E 135°13'0 0.0
2017-Oct-13 21:50N 34°42' E 135°13'0 0.0
2017-Oct-13 21:26N 34°42' E 135°13'0 0.0
2017-Oct-13 20:50N 34°42' E 135°13'0 0.0
2017-Oct-13 20:26N 34°42' E 135°13'0 0.0
2017-Oct-13 19:56N 34°42' E 135°13'0 0.0
2017-Oct-13 19:26N 34°42' E 135°13'0 0.0
2017-Oct-13 18:56N 34°42' E 135°13'0 0.0
2017-Oct-13 18:26N 34°42' E 135°13'0 0.0
2017-Oct-13 17:50N 34°42' E 135°13'0 0.0
2017-Oct-13 17:26N 34°42' E 135°13'0 0.0
2017-Oct-13 16:56N 34°42' E 135°13'0 0.0
2017-Oct-13 16:26N 34°42' E 135°13'0 0.0
2017-Oct-13 15:56N 34°42' E 135°13'0 0.0
2017-Oct-13 15:26N 34°42' E 135°13'0 0.0
2017-Oct-13 14:56N 34°42' E 135°13'0 0.0
2017-Oct-13 14:26N 34°42' E 135°13'0 0.0
2017-Oct-13 13:50N 34°42' E 135°13'0 0.0
2017-Oct-13 13:26N 34°42' E 135°13'0 0.0
2017-Oct-13 12:56N 34°42' E 135°13'0 0.0
2017-Oct-13 12:26N 34°42' E 135°13'0 0.0
2017-Oct-13 11:56N 34°42' E 135°13'0 0.0
2017-Oct-13 11:20N 34°42' E 135°13'0 0.0
2017-Oct-13 10:50N 34°42' E 135°13'0 0.0
2017-Oct-13 10:26N 34°42' E 135°13'0 0.0
2017-Oct-13 09:50N 34°42' E 135°13'0 0.0
2017-Oct-13 09:26N 34°42' E 135°13'0 0.0
2017-Oct-13 08:44N 34°42' E 135°13'0 0.0
2017-Oct-13 08:14N 34°42' E 135°13'0 0.0
2017-Oct-13 07:50N 34°42' E 135°13'0 0.0
2017-Oct-13 07:20N 34°42' E 135°13'0 0.0
2017-Oct-13 06:56N 34°42' E 135°13'0 0.0
2017-Oct-13 06:26N 34°42' E 135°13'0 0.0
2017-Oct-13 05:44N 34°42' E 135°13'0 0.0
2017-Oct-13 05:26N 34°42' E 135°13'0 0.0
2017-Oct-13 04:56N 34°42' E 135°13'0 0.0
2017-Oct-13 04:26N 34°42' E 135°13'0 0.0
2017-Oct-13 03:50N 34°42' E 135°13'0 0.0
2017-Oct-13 03:26N 34°42' E 135°13'0 0.0
2017-Oct-13 02:56N 34°42' E 135°13'0 0.0
2017-Oct-13 02:26N 34°42' E 135°13'0 0.0
2017-Oct-13 01:50N 34°42' E 135°13'0 0.0
2017-Oct-13 01:26N 34°42' E 135°13'0 0.0
2017-Oct-13 00:56N 34°42' E 135°13'0 0.0
2017-Oct-13 00:26N 34°42' E 135°13'0 0.0
2017-Oct-12 23:56N 34°42' E 135°13'0 0.0
2017-Oct-12 23:26N 34°42' E 135°13'0 0.0
2017-Oct-12 22:56N 34°42' E 135°13'0 0.0
2017-Oct-12 22:08N 34°42' E 135°13'0 0.0
2017-Oct-12 21:56N 34°42' E 135°13'0 0.0
2017-Oct-12 21:14N 34°42' E 135°13'0 0.0
2017-Oct-12 20:56N 34°42' E 135°13'0 0.0
2017-Oct-12 20:14N 34°42' E 135°13'0 0.0
2017-Oct-12 19:56N 34°42' E 135°13'0 0.0
2017-Oct-12 19:26N 34°42' E 135°13'0 0.0
2017-Oct-12 18:56N 34°42' E 135°13'0 0.0
2017-Oct-12 18:26N 34°42' E 135°13'0 0.0
2017-Oct-12 17:56N 34°42' E 135°13'0 0.0
2017-Oct-12 17:26N 34°42' E 135°13'0 0.0
2017-Oct-12 16:56N 34°42' E 135°13'0 0.0
2017-Oct-12 16:20N 34°42' E 135°13'0 0.0
2017-Oct-12 15:56N 34°42' E 135°13'0 0.0
2017-Oct-12 15:26N 34°42' E 135°13'0 0.0
2017-Oct-12 14:56N 34°42' E 135°13'0 0.0
2017-Oct-12 14:26N 34°42' E 135°13'0 0.0
2017-Oct-12 13:56N 34°42' E 135°13'0 0.0
2017-Oct-12 13:26N 34°42' E 135°13'0 0.0
2017-Oct-12 12:56N 34°42' E 135°13'0 0.0
2017-Oct-12 12:26N 34°42' E 135°13'0 0.0
2017-Oct-12 11:50N 34°42' E 135°13'0 0.0
2017-Oct-12 11:26N 34°42' E 135°13'0 0.0
2017-Oct-12 10:56N 34°42' E 135°13'0 0.0
2017-Oct-12 10:26N 34°42' E 135°13'0 0.0
2017-Oct-12 09:56N 34°42' E 135°13'0 0.0
2017-Oct-12 09:14N 34°42' E 135°13'0 0.0
2017-Oct-12 08:50N 34°42' E 135°13'0 0.0
2017-Oct-12 08:26N 34°42' E 135°13'0 0.0
2017-Oct-12 07:56N 34°42' E 135°13'0 0.0
2017-Oct-12 07:20N 34°42' E 135°13'0 0.0
2017-Oct-12 06:56N 34°42' E 135°13'0 1.2
2017-Oct-12 06:30N 34°41' E 135°13'  

Dump ship's entire track history